createdAt,value
2017-12-05T02:01:16.500Z,4.99
2017-12-05T03:28:21.588Z,4.84
2017-12-05T03:30:51.010Z,4.97
2017-12-05T03:33:22.099Z,4.96
2017-12-05T03:35:50.936Z,4.89
2017-12-05T03:38:24.567Z,4.90
2017-12-05T03:40:52.459Z,4.94
2017-12-05T03:43:20.237Z,4.92
2017-12-05T03:45:49.769Z,4.93
2017-12-05T03:48:17.612Z,4.91
2017-12-05T03:50:48.425Z,5.00
2017-12-05T04:16:05.920Z,4.96
2017-12-05T04:35:31.074Z,4.74
2017-12-05T04:37:58.633Z,4.87
2017-12-05T04:40:26.246Z,4.92
2017-12-05T04:42:54.518Z,5.02
2017-12-05T04:45:23.519Z,5.13
2017-12-05T04:47:55.507Z,5.21
2017-12-05T04:50:24.920Z,5.18
2017-12-05T04:52:53.329Z,5.18
2017-12-05T04:55:21.381Z,5.16
2017-12-05T04:57:50.223Z,5.00
2017-12-05T05:00:19.271Z,4.83
2017-12-05T05:02:47.356Z,4.70
2017-12-05T05:05:17.757Z,4.82
2017-12-05T05:07:45.761Z,4.82
2017-12-05T05:10:13.762Z,4.78
2017-12-05T05:12:45.244Z,4.99
2017-12-05T05:15:14.971Z,4.96
2017-12-05T05:17:48.078Z,4.67
2017-12-05T05:20:16.702Z,5.01
2017-12-05T05:22:44.911Z,4.83
2017-12-05T05:25:13.801Z,4.51
2017-12-05T05:27:44.113Z,4.58
2017-12-05T05:30:13.153Z,4.68
2017-12-05T05:32:41.969Z,4.81
2017-12-05T05:35:09.844Z,4.86
2017-12-05T05:37:37.654Z,4.92
2017-12-05T05:40:06.191Z,4.93
2017-12-05T05:42:36.065Z,4.61
2017-12-05T05:45:05.323Z,4.20
2017-12-05T05:47:33.152Z,4.39
2017-12-05T05:50:01.388Z,4.62
2017-12-05T05:52:29.066Z,4.74
2017-12-05T05:54:58.189Z,4.64
2017-12-05T05:57:27.158Z,4.55
2017-12-05T05:59:55.140Z,4.75
2017-12-05T06:02:25.629Z,4.69
2017-12-05T06:04:53.403Z,4.62
2017-12-05T06:07:23.656Z,4.43
2017-12-05T06:09:55.018Z,4.48
2017-12-05T06:12:30.528Z,4.44
2017-12-05T06:15:06.163Z,4.57
2017-12-05T06:17:35.591Z,4.56
2017-12-05T06:20:04.682Z,4.42
2017-12-05T06:22:32.283Z,4.40
2017-12-05T06:25:00.056Z,4.35
2017-12-05T06:27:27.671Z,4.33
2017-12-05T06:29:56.248Z,4.42
2017-12-05T06:32:23.983Z,4.44
2017-12-05T06:34:51.650Z,4.36
2017-12-05T06:37:19.230Z,4.27
2017-12-05T06:39:46.936Z,4.32
2017-12-05T06:42:14.793Z,4.37
2017-12-05T06:44:42.281Z,4.44
2017-12-05T06:47:10.918Z,4.51
2017-12-05T06:49:38.407Z,4.33
2017-12-05T06:52:07.988Z,4.38
2017-12-05T06:54:36.337Z,4.47
2017-12-05T06:57:03.918Z,4.43
2017-12-05T06:59:31.441Z,4.31
2017-12-05T07:01:58.930Z,4.36
2017-12-05T07:04:26.508Z,4.31
2017-12-05T07:06:54.052Z,4.41
2017-12-05T07:09:22.697Z,4.45
2017-12-05T07:11:50.326Z,4.52
2017-12-05T07:14:18.064Z,4.29
2017-12-05T07:16:45.579Z,4.33
2017-12-05T07:19:13.138Z,4.31
2017-12-05T07:21:40.655Z,4.25
2017-12-05T07:24:08.362Z,4.36
2017-12-05T07:26:35.950Z,4.44
2017-12-05T07:29:03.571Z,4.48
2017-12-05T07:31:31.153Z,4.52
2017-12-05T07:33:58.704Z,4.74
2017-12-05T07:36:26.288Z,4.84
2017-12-05T07:38:54.024Z,4.79
2017-12-05T07:41:21.546Z,4.77
2017-12-05T07:43:49.087Z,4.45
2017-12-05T07:46:16.662Z,4.76
2017-12-05T07:48:44.471Z,4.75
2017-12-05T07:51:12.090Z,4.81
2017-12-05T07:53:39.868Z,4.85
2017-12-05T07:56:07.577Z,4.91
2017-12-05T07:58:35.183Z,4.96
2017-12-05T08:01:02.942Z,4.92
2017-12-05T08:03:30.458Z,5.09
2017-12-05T08:05:58.978Z,5.08
2017-12-05T08:08:26.536Z,5.17
2017-12-05T08:10:54.134Z,5.29
2017-12-05T08:13:21.671Z,5.06
2017-12-05T08:15:49.370Z,5.15
2017-12-05T08:18:17.749Z,5.32
2017-12-05T08:20:46.229Z,5.42
2017-12-05T08:23:13.761Z,5.39
2017-12-05T08:25:41.285Z,5.39
2017-12-05T08:28:09.019Z,5.44
2017-12-05T08:30:36.591Z,5.52
2017-12-05T08:33:04.152Z,5.39
2017-12-05T08:35:31.673Z,5.23
2017-12-05T08:38:01.293Z,4.63
2017-12-05T08:40:28.825Z,4.81
2017-12-05T08:43:02.500Z,4.74
2017-12-05T08:45:59.722Z,4.91
2017-12-05T08:54:19.795Z,5.37
2017-12-05T08:56:49.448Z,5.33
2017-12-05T09:13:09.800Z,5.60
2017-12-05T09:15:37.758Z,5.51
2017-12-05T09:20:50.911Z,5.70
2017-12-05T09:23:18.436Z,5.74
2017-12-05T09:25:46.123Z,5.91
2017-12-05T09:28:14.536Z,6.22
2017-12-05T09:30:42.020Z,6.36
2017-12-05T09:33:09.560Z,6.58
2017-12-05T09:35:37.137Z,6.69
2017-12-05T09:38:04.749Z,6.70
2017-12-05T09:40:32.352Z,6.72
2017-12-05T09:42:59.889Z,6.51
2017-12-05T09:45:27.653Z,6.50
2017-12-05T09:47:55.131Z,6.45
2017-12-05T09:50:22.809Z,6.37
2017-12-05T09:52:50.303Z,6.22
2017-12-05T09:55:17.852Z,6.24
2017-12-05T09:57:45.436Z,6.43
2017-12-05T10:00:12.970Z,6.33
2017-12-05T10:02:40.532Z,6.20
2017-12-05T10:05:08.116Z,6.21
2017-12-05T10:07:35.747Z,6.26
2017-12-05T10:10:03.272Z,6.17
2017-12-05T10:12:31.049Z,6.18
2017-12-05T10:14:59.419Z,6.33
2017-12-05T10:17:27.341Z,6.66
2017-12-05T10:19:54.937Z,6.89
2017-12-05T10:22:23.941Z,7.01
2017-12-05T10:27:51.735Z,7.18
2017-12-05T10:30:19.792Z,7.36
2017-12-05T10:56:23.868Z,7.38
2017-12-05T11:04:54.224Z,7.35
2017-12-05T11:07:31.202Z,7.40
2017-12-05T11:10:03.276Z,7.22
2017-12-05T11:12:36.017Z,7.32
2017-12-05T11:15:07.026Z,7.23
2017-12-05T11:17:48.028Z,7.40
